Terminal Aerodrome Forecast
Issued by NWS Pocatello, ID

Home | Current Version | Previous Version | Text Only | Print | Product List | Glossary On
Versions: 1 2 3 4 5 6 7 8 9 10 11 12 13 14 15 16 17 18 19 20 21 22 23 24 25
000
FTUS45 KPIH 272241 AAA
TAFIDA
TAF AMD
KIDA 272241Z 2723/2818 23015G25KT P6SM VCTS SCT020CB OVC060
      TEMPO 2723/2724 VRB15G30KT P6SM -TSRA BKN020CB OVC060
     FM280200 22013KT P6SM VCSH SCT030 BKN070
     FM280500 22012KT P6SM SCT040 SCT120
     FM281500 33012KT P6SM SCT040 SCT120=

USA.gov is the U.S. government's official web portal to all federal, state and local government web resources and services.